Time;durP1;ratioP1;P1;durP2;ratioP2;P2;SDS_P1;SDS_P2;PMS_P1;PMS_P2;Temp;Humidity;BMP_temperature;BMP_pressure;BME280_temperature;BME280_humidity;BME280_pressure;Samples;Min_cycle;Max_cycle;Signal;HPM_P1;HPM_P2
2023/11/10 00:02:19;;;;;;;20.75;18.75;;;7.30;99.90;;;;;;4974404;28;20088;-73
2023/11/10 00:04:48;;;;;;;20.10;18.38;;;7.30;99.90;;;;;;4989116;28;20034;-73
2023/11/10 00:07:14;;;;;;;20.65;18.67;;;7.30;99.90;;;;;;4990022;28;20519;-73
2023/11/10 00:09:40;;;;;;;18.95;17.15;;;7.30;99.90;;;;;;4989593;28;20046;-73
2023/11/10 00:12:06;;;;;;;20.25;18.42;;;7.30;99.90;;;;;;4987827;28;20046;-73
2023/11/10 00:14:33;;;;;;;18.90;17.10;;;7.20;99.90;;;;;;4983365;28;20054;-73
2023/11/10 00:16:59;;;;;;;19.83;18.13;;;7.20;99.90;;;;;;4974138;28;20112;-73
2023/11/10 00:19:26;;;;;;;19.13;17.38;;;7.20;99.90;;;;;;4989097;28;20049;-73
2023/11/10 00:21:52;;;;;;;19.92;17.95;;;7.10;99.90;;;;;;4976498;28;20041;-72
2023/11/10 00:24:23;;;;;;;20.02;18.05;;;7.10;99.90;;;;;;4974291;28;20092;-73
2023/11/10 00:26:50;;;;;;;19.17;17.58;;;7.10;99.90;;;;;;4988303;28;20041;-73
2023/11/10 00:29:15;;;;;;;19.80;17.88;;;7.00;99.90;;;;;;4992157;28;20045;-72
2023/11/10 00:31:41;;;;;;;19.60;17.70;;;7.00;99.90;;;;;;4987865;28;20099;-72
2023/11/10 00:34:07;;;;;;;19.38;17.50;;;7.00;99.90;;;;;;4988724;28;20046;-72
2023/11/10 00:36:33;;;;;;;20.15;18.10;;;7.00;99.90;;;;;;4986324;28;20042;-72
2023/11/10 00:38:59;;;;;;;17.20;15.60;;;7.00;99.90;;;;;;4995450;28;20053;-72
2023/11/10 00:41:25;;;;;;;19.10;17.30;;;7.00;99.90;;;;;;4970177;28;20128;-72
2023/11/10 00:43:51;;;;;;;16.63;15.20;;;7.00;99.90;;;;;;4989565;28;20061;-72
2023/11/10 00:46:18;;;;;;;16.10;14.43;;;7.00;99.90;;;;;;4989071;28;20056;-72
2023/11/10 00:48:44;;;;;;;15.85;14.30;;;7.00;99.90;;;;;;4990340;28;20092;-72
2023/11/10 00:51:10;;;;;;;15.75;14.25;;;7.10;99.90;;;;;;4991779;28;20077;-74
2023/11/10 00:53:35;;;;;;;17.00;15.25;;;7.00;99.90;;;;;;4979561;28;20038;-74
2023/11/10 00:56:02;;;;;;;15.18;13.63;;;7.10;99.90;;;;;;4971705;28;20133;-74
2023/11/10 00:58:28;;;;;;;14.57;13.10;;;7.10;99.90;;;;;;4991636;28;20088;-74
2023/11/10 01:00:53;;;;;;;15.25;13.65;;;7.10;99.90;;;;;;4978626;28;20096;-72
2023/11/10 01:03:19;;;;;;;18.92;12.77;;;7.10;99.90;;;;;;4993176;28;20053;-72
2023/11/10 01:05:45;;;;;;;14.25;12.75;;;7.10;99.90;;;;;;4987892;28;20559;-72
2023/11/10 01:08:11;;;;;;;12.95;11.73;;;7.10;99.90;;;;;;4993020;28;20132;-71
2023/11/10 01:10:37;;;;;;;12.85;11.55;;;7.10;99.90;;;;;;4973149;28;20409;-72
2023/11/10 01:13:03;;;;;;;13.68;12.15;;;7.10;99.90;;;;;;4988072;28;20419;-72
2023/11/10 01:15:29;;;;;;;13.98;12.57;;;7.20;99.90;;;;;;4979167;28;20471;-72
2023/11/10 01:17:55;;;;;;;13.77;12.45;;;7.20;99.90;;;;;;4970632;28;20246;-72
2023/11/10 01:20:21;;;;;;;13.45;12.10;;;7.20;99.90;;;;;;4973307;28;20045;-72
2023/11/10 01:22:49;;;;;;;12.43;11.20;;;7.20;99.90;;;;;;4995400;28;20057;-72
2023/11/10 01:25:15;;;;;;;12.10;9.75;;;7.20;99.90;;;;;;4983270;28;20042;-72
2023/11/10 01:27:44;;;;;;;10.55;9.60;;;7.30;99.90;;;;;;4967132;28;20057;-73
2023/11/10 01:30:13;;;;;;;10.68;9.60;;;7.30;99.90;;;;;;4985531;28;20357;-73
2023/11/10 01:32:39;;;;;;;11.85;10.60;;;7.30;99.90;;;;;;4962472;28;20042;-73
2023/11/10 01:35:04;;;;;;;11.40;10.27;;;7.30;99.90;;;;;;4971901;28;20397;-72
2023/11/10 01:37:30;;;;;;;11.05;9.30;;;7.30;99.90;;;;;;4973855;28;20592;-72
2023/11/10 01:39:57;;;;;;;9.38;8.10;;;7.30;99.90;;;;;;4987660;28;20052;-72
2023/11/10 01:42:22;;;;;;;9.88;8.88;;;7.30;99.90;;;;;;4990845;28;20046;-72
2023/11/10 01:44:48;;;;;;;8.85;7.95;;;7.40;99.90;;;;;;4973653;28;20076;-72
2023/11/10 01:47:14;;;;;;;8.35;7.55;;;7.30;99.90;;;;;;4990282;28;20428;-72
2023/11/10 01:49:41;;;;;;;8.82;7.97;;;7.30;99.90;;;;;;4991555;28;20054;-77
2023/11/10 01:52:07;;;;;;;8.55;7.45;;;7.30;99.90;;;;;;4988631;28;20050;-78
2023/11/10 01:54:37;;;;;;;8.25;7.45;;;7.30;99.90;;;;;;4967655;28;20041;-77
2023/11/10 01:57:03;;;;;;;10.38;8.25;;;7.40;99.90;;;;;;4987812;28;20076;-78
2023/11/10 01:59:30;;;;;;;9.45;7.15;;;7.40;99.90;;;;;;4993480;28;20140;-78
2023/11/10 02:01:56;;;;;;;7.78;6.75;;;7.40;99.90;;;;;;4973500;28;20034;-78
2023/11/10 02:04:22;;;;;;;8.60;7.63;;;7.40;99.90;;;;;;4991736;28;20068;-78
2023/11/10 02:06:48;;;;;;;10.52;7.38;;;7.40;99.90;;;;;;4988620;28;20050;-77
2023/11/10 02:09:15;;;;;;;8.48;7.05;;;7.40;99.90;;;;;;4979446;28;20084;-77
2023/11/10 02:11:41;;;;;;;7.28;6.47;;;7.30;99.90;;;;;;4973800;28;21120;-78
2023/11/10 02:14:08;;;;;;;7.85;6.82;;;7.40;99.90;;;;;;4970802;28;20046;-77
2023/11/10 02:16:35;;;;;;;7.10;6.38;;;7.30;99.90;;;;;;4971447;28;20145;-78
2023/11/10 02:19:02;;;;;;;8.20;7.07;;;7.30;99.90;;;;;;4972862;28;20042;-77
2023/11/10 02:21:28;;;;;;;8.60;6.38;;;7.30;99.90;;;;;;4987874;28;20049;-78
2023/11/10 02:24:01;;;;;;;8.23;6.53;;;7.30;99.90;;;;;;4973091;28;20484;-78
2023/11/10 02:26:30;;;;;;;8.05;7.22;;;7.30;99.90;;;;;;4966696;28;20053;-77
2023/11/10 02:28:55;;;;;;;8.68;6.85;;;7.30;99.90;;;;;;4970539;28;20103;-78
2023/11/10 02:31:21;;;;;;;10.73;7.30;;;7.30;99.90;;;;;;4983637;28;20049;-78
2023/11/10 02:33:48;;;;;;;8.32;7.30;;;7.30;99.90;;;;;;4974402;28;20401;-78
2023/11/10 02:36:13;;;;;;;9.25;7.40;;;7.30;99.90;;;;;;4973482;28;20114;-78
2023/11/10 02:38:42;;;;;;;7.80;7.03;;;7.20;99.90;;;;;;4985159;28;20485;-78
2023/11/10 02:41:07;;;;;;;8.55;7.55;;;7.30;99.90;;;;;;4965918;28;20057;-78
2023/11/10 02:43:34;;;;;;;8.40;7.60;;;7.30;99.90;;;;;;4970394;28;20038;-78
2023/11/10 02:46:01;;;;;;;8.15;7.25;;;7.30;99.90;;;;;;4973069;28;20045;-78
2023/11/10 02:48:27;;;;;;;9.23;7.60;;;7.30;99.90;;;;;;4971488;28;20045;-72
2023/11/10 02:54:34;;;;;;;9.00;7.45;;;7.40;99.90;;;;;;4978595;22;20057;-73
2023/11/10 02:57:00;;;;;;;8.52;7.05;;;7.30;99.90;;;;;;4989320;28;20456;-73
2023/11/10 02:59:26;;;;;;;9.95;7.93;;;7.30;99.90;;;;;;5006690;28;21403;-72
2023/11/10 03:01:52;;;;;;;8.07;7.28;;;7.40;99.90;;;;;;5009294;28;20037;-73
2023/11/10 03:04:18;;;;;;;7.43;6.72;;;7.40;99.90;;;;;;4989958;28;20041;-72
2023/11/10 03:06:43;;;;;;;7.90;7.10;;;7.40;99.90;;;;;;5008457;28;20037;-72
2023/11/10 03:09:09;;;;;;;9.20;7.53;;;7.40;99.90;;;;;;5009490;28;20041;-72
2023/11/10 03:11:35;;;;;;;8.32;7.40;;;7.40;99.90;;;;;;5005455;28;20041;-73
2023/11/10 03:14:01;;;;;;;8.00;7.18;;;7.30;99.90;;;;;;5007129;28;20038;-72
2023/11/10 03:16:27;;;;;;;8.50;7.40;;;7.40;99.90;;;;;;4992663;28;20128;-72
2023/11/10 03:18:54;;;;;;;7.38;6.75;;;7.40;99.90;;;;;;5008736;28;20050;-72
2023/11/10 03:21:21;;;;;;;8.43;6.75;;;7.50;99.90;;;;;;5009327;28;20064;-72
2023/11/10 03:23:47;;;;;;;7.85;6.13;;;7.40;99.90;;;;;;5007327;28;20053;-72
2023/11/10 03:26:13;;;;;;;7.88;6.50;;;7.40;99.90;;;;;;4998809;28;20057;-72
2023/11/10 03:28:38;;;;;;;8.25;6.60;;;7.40;99.90;;;;;;4988860;28;20503;-72
2023/11/10 03:31:08;;;;;;;8.07;6.80;;;7.40;99.90;;;;;;5009220;28;20083;-72
2023/11/10 03:33:34;;;;;;;8.90;6.47;;;7.40;99.90;;;;;;4988611;28;20049;-72
2023/11/10 03:36:02;;;;;;;8.35;6.80;;;7.50;99.90;;;;;;5003365;28;20595;-71
2023/11/10 03:38:28;;;;;;;7.57;6.63;;;7.50;99.90;;;;;;4982789;28;20185;-72
2023/11/10 03:40:54;;;;;;;7.43;6.55;;;7.50;99.90;;;;;;4992672;28;20132;-72
2023/11/10 03:43:20;;;;;;;8.77;6.38;;;7.50;99.90;;;;;;5008962;28;20056;-72
2023/11/10 03:45:47;;;;;;;8.23;6.28;;;7.50;99.90;;;;;;4981960;28;20464;-72
2023/11/10 03:48:12;;;;;;;7.82;6.20;;;7.50;99.90;;;;;;5007530;28;20099;-72
2023/11/10 03:50:41;;;;;;;9.10;6.10;;;7.50;99.90;;;;;;5005700;28;20041;-71
2023/11/10 03:53:07;;;;;;;6.43;5.82;;;7.40;99.90;;;;;;4988907;28;20069;-71
2023/11/10 03:55:33;;;;;;;7.90;5.82;;;7.50;99.90;;;;;;4991063;28;20499;-72
2023/11/10 03:57:58;;;;;;;9.93;6.60;;;7.50;99.90;;;;;;5004932;28;20053;-72
2023/11/10 04:00:24;;;;;;;8.82;6.05;;;7.50;99.90;;;;;;5007999;28;20050;-72
2023/11/10 04:02:50;;;;;;;9.50;6.55;;;7.50;99.90;;;;;;4991056;28;20408;-71
2023/11/10 04:05:16;;;;;;;7.05;5.40;;;7.50;99.90;;;;;;5007981;28;20511;-72
2023/11/10 04:07:41;;;;;;;8.15;6.15;;;7.50;99.90;;;;;;5009449;28;20234;-71
2023/11/10 04:10:07;;;;;;;9.50;6.38;;;7.50;99.90;;;;;;4990310;28;20030;-71
2023/11/10 04:12:33;;;;;;;8.20;5.80;;;7.50;99.90;;;;;;4999175;28;20516;-72
2023/11/10 04:14:59;;;;;;;8.82;5.60;;;7.50;99.90;;;;;;4986479;28;20068;-72
2023/11/10 04:17:25;;;;;;;8.40;5.78;;;7.50;99.90;;;;;;5001712;28;20085;-72
2023/11/10 04:19:51;;;;;;;6.45;4.97;;;7.50;99.90;;;;;;4977273;28;20034;-72
2023/11/10 04:22:17;;;;;;;8.82;5.60;;;7.50;99.90;;;;;;5006713;28;20045;-71
2023/11/10 04:24:43;;;;;;;7.15;5.55;;;7.50;99.90;;;;;;5007872;28;20041;-72
2023/11/10 04:27:09;;;;;;;7.47;6.18;;;7.40;99.90;;;;;;5006943;28;20099;-72
2023/11/10 04:29:36;;;;;;;7.88;6.25;;;7.40;99.90;;;;;;4991300;28;20057;-72
2023/11/10 04:32:03;;;;;;;7.05;5.50;;;7.40;99.90;;;;;;5007377;28;20048;-72
2023/11/10 04:34:29;;;;;;;7.40;5.47;;;7.40;99.90;;;;;;5014710;28;20048;-72
2023/11/10 04:36:55;;;;;;;9.85;6.03;;;7.40;99.90;;;;;;5003136;28;20030;-71
2023/11/10 04:39:24;;;;;;;7.10;5.50;;;7.40;99.90;;;;;;5011957;28;20064;-72
2023/11/10 04:41:50;;;;;;;9.15;5.70;;;7.40;99.90;;;;;;5010777;28;20049;-71
2023/11/10 04:44:16;;;;;;;8.90;5.32;;;7.40;99.90;;;;;;4993993;28;20041;-71
2023/11/10 04:46:42;;;;;;;6.68;5.32;;;7.40;99.90;;;;;;4995102;28;20424;-71
2023/11/10 04:49:10;;;;;;;8.32;5.53;;;7.40;99.90;;;;;;5004819;28;20041;-71
2023/11/10 04:51:36;;;;;;;7.10;5.43;;;7.40;99.90;;;;;;4994870;28;20096;-71
2023/11/10 04:54:03;;;;;;;7.93;5.72;;;7.40;99.90;;;;;;5010429;28;20052;-72
2023/11/10 04:56:29;;;;;;;9.27;5.63;;;7.40;99.90;;;;;;5006508;28;20189;-72
2023/11/10 04:58:55;;;;;;;8.65;5.25;;;7.40;99.90;;;;;;5009423;28;20045;-71
2023/11/10 05:01:21;;;;;;;6.55;5.65;;;7.40;99.90;;;;;;5008050;28;20414;-71
2023/11/10 05:03:48;;;;;;;7.22;5.20;;;7.40;99.90;;;;;;4987632;28;20038;-71
2023/11/10 05:06:14;;;;;;;6.65;5.30;;;7.40;99.90;;;;;;4992113;28;20131;-71
2023/11/10 05:08:40;;;;;;;7.57;5.60;;;7.40;99.90;;;;;;4993161;28;20049;-71
2023/11/10 05:11:06;;;;;;;7.32;5.53;;;7.50;99.90;;;;;;5003123;28;20038;-71
2023/11/10 05:13:32;;;;;;;7.07;5.32;;;7.50;99.90;;;;;;5009530;28;20060;-71
2023/11/10 05:15:58;;;;;;;8.27;5.90;;;7.50;99.90;;;;;;5009617;28;20037;-71
2023/11/10 05:18:27;;;;;;;6.63;5.38;;;7.50;99.90;;;;;;5000396;28;20128;-71
2023/11/10 05:20:55;;;;;;;7.70;5.77;;;7.50;99.90;;;;;;5011180;28;20396;-71
2023/11/10 05:23:21;;;;;;;7.07;5.70;;;7.50;99.90;;;;;;5010907;28;20414;-71
2023/11/10 05:25:47;;;;;;;9.00;5.63;;;7.50;99.90;;;;;;4994920;28;20045;-71
2023/11/10 05:28:12;;;;;;;9.30;5.93;;;7.50;99.90;;;;;;5010229;28;20522;-71
2023/11/10 05:30:38;;;;;;;8.82;6.18;;;7.60;99.90;;;;;;5007439;28;20533;-72
2023/11/10 05:33:04;;;;;;;8.35;6.30;;;7.60;99.90;;;;;;4992818;28;20115;-71
2023/11/10 05:35:32;;;;;;;8.82;6.82;;;7.60;99.90;;;;;;5008055;28;20444;-71
2023/11/10 05:37:58;;;;;;;9.88;8.07;;;7.60;99.90;;;;;;4994228;28;20033;-71
2023/11/10 05:40:26;;;;;;;11.48;8.20;;;7.50;99.90;;;;;;5009412;28;20056;-71
2023/11/10 05:42:52;;;;;;;9.02;7.35;;;7.50;99.90;;;;;;5009137;28;20481;-71
2023/11/10 05:45:18;;;;;;;11.35;7.85;;;7.50;99.90;;;;;;4997320;28;20046;-72
2023/11/10 05:47:44;;;;;;;10.40;7.65;;;7.50;99.90;;;;;;5011540;28;20454;-72
2023/11/10 05:50:10;;;;;;;9.20;7.35;;;7.50;99.90;;;;;;5008957;28;20103;-73
2023/11/10 05:52:36;;;;;;;8.98;7.50;;;7.50;99.90;;;;;;5010339;28;20053;-72
2023/11/10 05:55:02;;;;;;;11.77;8.10;;;7.50;99.90;;;;;;5002083;28;20045;-72
2023/11/10 05:57:28;;;;;;;12.75;8.07;;;7.50;99.90;;;;;;5008578;28;20116;-72
2023/11/10 05:59:55;;;;;;;10.95;8.70;;;7.50;99.90;;;;;;5009807;28;20570;-72
2023/11/10 06:02:22;;;;;;;11.25;8.50;;;7.40;99.90;;;;;;4990311;28;20062;-73
2023/11/10 06:04:48;;;;;;;10.90;8.73;;;7.40;99.90;;;;;;4992308;28;20037;-72
2023/11/10 06:07:14;;;;;;;10.82;9.68;;;7.40;99.90;;;;;;4994523;28;20073;-72
2023/11/10 06:09:40;;;;;;;11.80;8.43;;;7.40;99.90;;;;;;5010068;28;20052;-72
2023/11/10 06:12:07;;;;;;;11.30;9.30;;;7.40;99.90;;;;;;4993344;28;20048;-72
2023/11/10 06:14:33;;;;;;;12.13;9.82;;;7.30;99.90;;;;;;4992333;28;20045;-72
2023/11/10 06:16:59;;;;;;;10.13;8.60;;;7.30;99.90;;;;;;4993751;28;20119;-72
2023/11/10 06:19:24;;;;;;;12.32;9.98;;;7.30;99.90;;;;;;5006393;28;20053;-73
2023/11/10 06:21:50;;;;;;;10.85;9.05;;;7.20;99.90;;;;;;5011396;28;20492;-73
2023/11/10 06:24:16;;;;;;;11.20;9.32;;;7.30;99.90;;;;;;5013980;28;20484;-72
2023/11/10 06:26:42;;;;;;;13.55;9.40;;;7.20;99.90;;;;;;4993167;28;20076;-72
2023/11/10 06:29:08;;;;;;;11.30;9.82;;;7.20;99.90;;;;;;5004922;28;20052;-72
2023/11/10 06:31:34;;;;;;;12.88;10.63;;;7.20;99.90;;;;;;5005917;28;20053;-72
2023/11/10 06:34:00;;;;;;;14.02;9.88;;;7.10;99.90;;;;;;4988377;28;20044;-73
2023/11/10 06:36:26;;;;;;;11.27;9.95;;;7.20;99.90;;;;;;5017594;28;20049;-74
2023/11/10 06:38:52;;;;;;;11.10;9.98;;;7.20;99.90;;;;;;4990755;28;20119;-78
2023/11/10 06:41:18;;;;;;;15.23;10.57;;;7.20;99.90;;;;;;4993636;28;20045;-77
2023/11/10 06:43:47;;;;;;;13.55;11.30;;;7.10;99.90;;;;;;4988643;28;20041;-78
2023/11/10 06:46:22;;;;;;;15.15;11.82;;;7.20;99.90;;;;;;5012644;28;20063;-77
2023/11/10 06:48:52;;;;;;;13.77;12.05;;;7.20;99.90;;;;;;5009364;28;20049;-77
2023/11/10 06:51:18;;;;;;;13.70;12.25;;;7.20;99.90;;;;;;5002660;28;20631;-77
2023/11/10 06:53:44;;;;;;;15.05;12.65;;;7.30;99.90;;;;;;5006492;28;20047;-78
2023/11/10 06:56:10;;;;;;;16.10;12.48;;;7.20;99.90;;;;;;5003916;28;20099;-77
2023/11/10 06:58:37;;;;;;;13.23;11.85;;;7.20;99.90;;;;;;5009722;28;20610;-77
2023/11/10 07:01:04;;;;;;;14.13;11.88;;;7.20;99.90;;;;;;5005205;28;20088;-77
2023/11/10 07:03:30;;;;;;;12.57;11.13;;;7.20;99.90;;;;;;4990185;28;20049;-77
2023/11/10 07:05:56;;;;;;;14.02;12.35;;;7.20;99.90;;;;;;5007060;28;20143;-78
2023/11/10 07:08:22;;;;;;;16.15;12.73;;;7.30;99.90;;;;;;5009459;28;20045;-77
2023/11/10 07:10:53;;;;;;;12.73;11.43;;;7.20;99.90;;;;;;5006284;28;20083;-77
2023/11/10 07:13:18;;;;;;;12.63;11.32;;;7.20;99.90;;;;;;4991925;28;20526;-77
2023/11/10 07:15:45;;;;;;;17.88;14.07;;;7.20;99.90;;;;;;5008833;28;20970;-77
2023/11/10 07:18:11;;;;;;;14.57;11.63;;;7.40;99.90;;;;;;5008476;28;20112;-77
2023/11/10 07:20:44;;;;;;;17.15;13.25;;;7.20;99.90;;;;;;5005585;28;20053;-77
2023/11/10 07:23:10;;;;;;;16.55;13.38;;;7.20;99.90;;;;;;5000602;28;20079;-77
2023/11/10 07:25:37;;;;;;;15.07;13.18;;;7.20;99.90;;;;;;4991536;28;20412;-78
2023/11/10 07:28:03;;;;;;;16.95;13.18;;;7.20;99.90;;;;;;5007944;28;20046;-77
2023/11/10 07:30:29;;;;;;;19.00;13.85;;;7.20;99.90;;;;;;4997708;28;20061;-77
2023/11/10 07:32:55;;;;;;;15.68;14.00;;;7.20;99.90;;;;;;4988972;28;20050;-77
2023/11/10 07:35:24;;;;;;;15.32;13.18;;;7.20;99.90;;;;;;5007151;28;20103;-78
2023/11/10 07:37:50;;;;;;;15.80;13.50;;;7.20;99.90;;;;;;5008232;28;20057;-78
2023/11/10 07:40:20;;;;;;;19.95;14.05;;;7.30;99.90;;;;;;4989914;28;20045;-78
2023/11/10 07:42:47;;;;;;;17.17;14.52;;;7.30;99.90;;;;;;4991651;28;20041;-79
2023/11/10 07:45:17;;;;;;;17.77;14.38;;;7.30;99.90;;;;;;5007446;28;20060;-76
2023/11/10 07:47:48;;;;;;;15.25;13.45;;;7.30;99.90;;;;;;4993825;28;20112;-77
2023/11/10 07:50:18;;;;;;;15.35;13.73;;;7.30;99.90;;;;;;4981920;28;20040;-76
2023/11/10 07:52:46;;;;;;;15.15;12.60;;;7.40;99.90;;;;;;4997305;28;20493;-76
2023/11/10 07:55:13;;;;;;;15.85;13.80;;;7.40;99.90;;;;;;5004904;28;20059;-77
2023/11/10 07:57:41;;;;;;;14.60;13.10;;;7.40;99.90;;;;;;5007653;28;20092;-76
2023/11/10 08:00:07;;;;;;;13.68;11.98;;;7.50;99.90;;;;;;4990885;28;20395;-76
2023/11/10 08:02:35;;;;;;;18.08;13.35;;;7.50;99.90;;;;;;4988614;28;20041;-76
2023/11/10 08:05:02;;;;;;;15.68;12.68;;;7.50;99.90;;;;;;5004180;28;20410;-77
2023/11/10 08:07:28;;;;;;;13.93;12.43;;;7.60;99.90;;;;;;4989647;28;20526;-77
2023/11/10 08:09:55;;;;;;;14.27;12.68;;;7.60;99.90;;;;;;4996171;28;20091;-76
2023/11/10 08:12:21;;;;;;;14.35;12.70;;;7.70;99.90;;;;;;4991057;28;20076;-77
2023/11/10 08:14:47;;;;;;;15.93;12.35;;;7.70;99.90;;;;;;5011952;28;20047;-77
2023/11/10 08:17:13;;;;;;;14.77;12.20;;;7.70;99.90;;;;;;5010081;28;20068;-76
2023/11/10 08:19:41;;;;;;;13.95;11.70;;;7.80;99.90;;;;;;5011152;28;20126;-78
2023/11/10 08:22:07;;;;;;;14.27;12.00;;;7.80;99.90;;;;;;5006618;28;20033;-78
2023/11/10 08:24:32;;;;;;;16.25;12.07;;;7.70;99.90;;;;;;5006889;28;20059;-77
2023/11/10 08:26:59;;;;;;;17.92;11.55;;;7.80;99.90;;;;;;5011755;28;20056;-76
2023/11/10 08:29:24;;;;;;;14.48;10.57;;;7.80;99.90;;;;;;5011120;28;20103;-77
2023/11/10 08:31:52;;;;;;;12.60;11.30;;;7.80;99.90;;;;;;4992930;28;20500;-77
2023/11/10 08:34:21;;;;;;;12.95;10.82;;;7.90;99.90;;;;;;5006762;28;20049;-76
2023/11/10 08:36:51;;;;;;;15.38;11.20;;;7.80;99.90;;;;;;4995505;28;20051;-77
2023/11/10 08:39:18;;;;;;;16.38;11.95;;;7.90;99.90;;;;;;5011271;28;20041;-77
2023/11/10 08:41:52;;;;;;;13.75;10.50;;;7.90;99.90;;;;;;4989457;28;20049;-78
2023/11/10 08:44:18;;;;;;;12.35;10.07;;;7.90;99.90;;;;;;5010956;28;20045;-77
2023/11/10 08:46:45;;;;;;;12.55;10.23;;;7.90;99.90;;;;;;5010983;28;20377;-77
2023/11/10 08:49:13;;;;;;;13.00;11.70;;;7.90;99.90;;;;;;4995905;28;20037;-77
2023/11/10 08:51:40;;;;;;;13.25;10.05;;;8.00;99.90;;;;;;4993271;28;20045;-77
2023/11/10 08:54:06;;;;;;;13.15;9.32;;;8.00;99.90;;;;;;5012183;28;20077;-77
2023/11/10 08:56:32;;;;;;;12.88;9.90;;;8.00;99.90;;;;;;4992983;28;20048;-77
2023/11/10 08:58:58;;;;;;;11.98;9.23;;;8.00;99.90;;;;;;5010573;28;20037;-77
2023/11/10 09:01:26;;;;;;;11.00;9.23;;;8.00;99.90;;;;;;5010445;28;20048;-77
2023/11/10 09:03:55;;;;;;;12.43;8.93;;;8.00;99.90;;;;;;5008266;28;20408;-78
2023/11/10 09:06:21;;;;;;;12.55;7.53;;;8.00;99.90;;;;;;5010539;28;20037;-73
2023/11/10 09:08:47;;;;;;;14.52;7.90;;;8.00;99.90;;;;;;5010032;28;20060;-73
2023/11/10 09:11:12;;;;;;;11.68;7.60;;;8.10;99.90;;;;;;5009959;28;20063;-73
2023/11/10 09:13:39;;;;;;;13.82;8.85;;;8.10;99.90;;;;;;5006143;28;20050;-74
2023/11/10 09:16:05;;;;;;;10.65;6.82;;;8.10;99.90;;;;;;5009446;28;20045;-73
2023/11/10 09:18:31;;;;;;;15.05;6.13;;;8.10;99.90;;;;;;4993572;28;20057;-73
2023/11/10 09:20:57;;;;;;;12.13;5.90;;;8.10;99.90;;;;;;4991716;28;20435;-73
2023/11/10 09:23:22;;;;;;;9.82;6.15;;;8.10;99.90;;;;;;5012225;28;20088;-73
2023/11/10 09:25:49;;;;;;;8.93;5.47;;;8.10;99.90;;;;;;5009139;28;20385;-73
2023/11/10 09:28:15;;;;;;;9.93;5.13;;;8.10;99.90;;;;;;5005021;28;20186;-73
2023/11/10 09:30:41;;;;;;;10.35;6.07;;;8.10;99.90;;;;;;5009456;28;20742;-74
2023/11/10 09:33:06;;;;;;;9.45;5.30;;;8.10;99.90;;;;;;5011685;28;20064;-73
2023/11/10 09:35:34;;;;;;;8.70;5.80;;;8.10;99.90;;;;;;5008126;28;20037;-74
2023/11/10 09:38:00;;;;;;;11.43;6.25;;;8.10;99.90;;;;;;4996274;28;20091;-73
2023/11/10 09:40:28;;;;;;;9.48;5.65;;;8.20;99.90;;;;;;4990655;28;20518;-74
2023/11/10 09:42:56;;;;;;;8.93;5.47;;;8.20;99.90;;;;;;4994487;28;20052;-74
2023/11/10 09:45:22;;;;;;;9.73;5.65;;;8.20;99.90;;;;;;5008321;28;20407;-74
2023/11/10 09:47:52;;;;;;;9.02;5.97;;;8.20;99.90;;;;;;4995669;28;20045;-74
2023/11/10 09:50:22;;;;;;;8.40;6.10;;;8.20;99.90;;;;;;4993978;28;20585;-74
2023/11/10 09:52:51;;;;;;;9.88;6.10;;;8.20;99.90;;;;;;4992870;28;20308;-74
2023/11/10 09:55:18;;;;;;;9.00;6.38;;;8.20;99.90;;;;;;5009729;28;20049;-74
2023/11/10 09:57:50;;;;;;;9.00;5.75;;;8.20;99.90;;;;;;5010147;28;20056;-73
2023/11/10 10:00:16;;;;;;;;;;;8.20;99.90;;;;;;4985233;28;20499;-74
2023/11/10 10:02:43;;;;;;;9.30;5.78;;;8.10;99.90;;;;;;4989773;28;20610;-74
2023/11/10 10:05:09;;;;;;;12.20;7.28;;;8.20;99.90;;;;;;5010894;28;20117;-74
2023/11/10 10:07:35;;;;;;;13.90;5.93;;;8.20;99.90;;;;;;4995000;28;20507;-74
2023/11/10 10:10:02;;;;;;;7.22;5.00;;;8.20;99.90;;;;;;4991776;28;20055;-74
2023/11/10 10:12:29;;;;;;;10.35;5.75;;;8.20;99.90;;;;;;4994137;28;20045;-74
2023/11/10 10:14:55;;;;;;;10.80;6.57;;;8.10;99.90;;;;;;4993512;28;20046;-74
2023/11/10 10:17:38;;;;;;;11.57;6.50;;;8.10;99.90;;;;;;4992875;28;20041;-74
2023/11/10 10:20:13;;;;;;;10.05;6.18;;;8.20;99.90;;;;;;4983525;28;20129;-74
2023/11/10 10:22:46;;;;;;;10.43;5.85;;;8.20;99.90;;;;;;4980505;28;20519;-74
2023/11/10 10:25:13;;;;;;;8.70;5.32;;;8.20;99.90;;;;;;4985352;28;20508;-73
2023/11/10 10:27:40;;;;;;;10.77;6.00;;;8.20;99.90;;;;;;5008296;28;20547;-74
2023/11/10 10:30:07;;;;;;;8.32;5.57;;;8.20;99.90;;;;;;5009380;28;20504;-74
2023/11/10 10:32:37;;;;;;;8.18;5.10;;;8.20;99.90;;;;;;5011274;28;20054;-74
2023/11/10 10:35:03;;;;;;;11.65;5.82;;;8.10;99.90;;;;;;4982116;28;20037;-73
2023/11/10 10:37:29;;;;;;;10.40;5.18;;;8.20;99.90;;;;;;5009280;28;20056;-73
2023/11/10 10:39:59;;;;;;;9.20;5.22;;;8.10;99.90;;;;;;4993258;28;20041;-74
2023/11/10 10:42:31;;;;;;;8.60;5.40;;;8.10;99.90;;;;;;4992306;28;20050;-74
2023/11/10 10:44:59;;;;;;;9.40;4.75;;;8.10;99.90;;;;;;4993384;28;20048;-74
2023/11/10 10:47:25;;;;;;;9.13;4.68;;;8.10;99.90;;;;;;5009239;28;20057;-74
2023/11/10 10:49:52;;;;;;;8.25;4.80;;;8.10;99.90;;;;;;5008375;28;20060;-74
2023/11/10 10:52:18;;;;;;;7.53;4.15;;;8.10;99.90;;;;;;5006141;28;20045;-73
2023/11/10 10:54:46;;;;;;;8.70;4.55;;;8.20;99.90;;;;;;5008127;28;20089;-73
2023/11/10 10:57:13;;;;;;;9.02;4.80;;;8.10;99.90;;;;;;4992127;28;20053;-74
2023/11/10 10:59:40;;;;;;;7.63;4.60;;;8.20;99.90;;;;;;4986697;28;20488;-74
2023/11/10 11:02:09;;;;;;;9.23;5.40;;;8.20;99.90;;;;;;5027125;28;20088;-73
2023/11/10 11:04:53;;;;;;;11.00;5.15;;;8.20;99.90;;;;;;5003949;28;20055;-73
2023/11/10 11:07:34;;;;;;;8.52;4.70;;;8.20;99.90;;;;;;5003448;28;20053;-77
2023/11/10 11:10:37;;;;;;;11.07;5.63;;;8.20;99.90;;;;;;5002533;28;20041;-76
2023/11/10 11:13:41;;;;;;;11.57;4.82;;;8.20;99.90;;;;;;5006315;28;20064;-77
2023/11/10 11:16:41;;;;;;;8.43;4.35;;;8.20;99.90;;;;;;4987487;28;20081;-75
2023/11/10 11:19:23;;;;;;;10.68;4.97;;;8.20;99.90;;;;;;4982495;28;20516;-75
2023/11/10 11:21:51;;;;;;;9.35;4.45;;;8.20;99.90;;;;;;4992436;28;20045;-75
2023/11/10 11:24:23;;;;;;;10.40;4.78;;;8.20;99.90;;;;;;4989390;28;20507;-75
2023/11/10 11:27:02;;;;;;;9.98;4.40;;;8.20;99.90;;;;;;4989753;28;20081;-75
2023/11/10 11:29:36;;;;;;;6.65;4.10;;;8.20;99.90;;;;;;5008137;28;20053;-75
2023/11/10 11:32:08;;;;;;;8.25;4.30;;;8.20;99.90;;;;;;5003057;28;20079;-75
2023/11/10 11:34:38;;;;;;;10.70;4.75;;;8.20;99.90;;;;;;5006776;28;20069;-74
2023/11/10 11:37:07;;;;;;;9.15;5.63;;;8.30;99.90;;;;;;5003012;28;20139;-74
2023/11/10 11:39:34;;;;;;;10.38;4.70;;;8.30;99.90;;;;;;5007594;28;20045;-75
2023/11/10 11:42:07;;;;;;;10.80;5.20;;;8.30;99.90;;;;;;5007198;28;20049;-75
2023/11/10 11:44:35;;;;;;;13.10;5.53;;;8.30;99.90;;;;;;4984788;28;20042;-74
2023/11/10 11:47:09;;;;;;;8.88;4.50;;;8.40;99.90;;;;;;4990715;28;20469;-75
2023/11/10 11:49:39;;;;;;;12.30;4.53;;;8.40;99.90;;;;;;5009445;28;20045;-75
2023/11/10 11:52:09;;;;;;;9.88;4.30;;;8.30;99.90;;;;;;4994216;28;20139;-75
2023/11/10 11:54:35;;;;;;;12.40;5.50;;;8.30;99.90;;;;;;4950190;28;1319114;-75
2023/11/10 11:57:01;;;;;;;10.40;5.15;;;8.30;99.90;;;;;;4992625;28;20045;-75
2023/11/10 11:59:28;;;;;;;8.90;4.30;;;8.30;99.90;;;;;;5006560;28;20056;-75
2023/11/10 12:01:55;;;;;;;9.40;5.05;;;8.30;99.90;;;;;;4990499;28;20046;-74
2023/11/10 12:04:24;;;;;;;9.90;3.92;;;8.30;99.90;;;;;;4991412;28;20038;-75
2023/11/10 12:06:52;;;;;;;9.70;3.80;;;8.30;99.90;;;;;;4994400;28;20140;-75
2023/11/10 12:09:18;;;;;;;11.07;3.70;;;8.30;99.90;;;;;;5011209;28;20285;-75
2023/11/10 12:11:45;;;;;;;9.57;4.38;;;8.20;99.90;;;;;;5006409;28;20065;-75
2023/11/10 12:14:12;;;;;;;10.30;4.00;;;8.20;99.90;;;;;;4986654;28;20206;-74
2023/11/10 12:16:44;;;;;;;8.55;4.25;;;8.10;99.90;;;;;;4992427;28;20087;-75
2023/11/10 12:19:12;;;;;;;10.13;4.88;;;8.10;99.90;;;;;;5017751;28;20041;-75
2023/11/10 12:21:38;;;;;;;8.63;4.72;;;8.00;99.90;;;;;;4993375;28;20135;-74
2023/11/10 12:24:06;;;;;;;13.75;5.90;;;8.00;99.90;;;;;;5007520;28;20096;-75
2023/11/10 12:26:39;;;;;;;13.95;5.82;;;8.00;99.90;;;;;;5009492;28;20519;-76
2023/11/10 12:29:17;;;;;;;10.95;5.30;;;8.00;99.90;;;;;;4992855;28;20056;-75
2023/11/10 12:31:48;;;;;;;9.40;4.68;;;8.00;99.90;;;;;;5010988;28;20084;-74
2023/11/10 12:34:14;;;;;;;11.55;6.05;;;8.00;99.90;;;;;;5016152;28;20076;-74
2023/11/10 12:36:40;;;;;;;12.05;5.85;;;8.00;99.90;;;;;;4990489;28;20053;-75
2023/11/10 12:39:17;;;;;;;9.75;5.00;;;8.00;99.90;;;;;;4996602;28;20109;-74
2023/11/10 12:41:46;;;;;;;9.18;4.75;;;8.00;99.90;;;;;;5014067;28;20103;-75
2023/11/10 12:44:33;;;;;;;11.13;5.40;;;8.10;99.90;;;;;;4996104;28;20420;-75
2023/11/10 12:47:06;;;;;;;12.85;6.20;;;8.00;99.90;;;;;;4997154;28;20061;-75
2023/11/10 12:49:32;;;;;;;12.52;6.30;;;8.00;99.90;;;;;;5008908;28;20091;-75
2023/11/10 12:52:09;;;;;;;9.88;5.18;;;8.00;99.90;;;;;;5008628;28;20041;-75
2023/11/10 12:54:40;;;;;;;13.57;6.03;;;8.00;99.90;;;;;;4993871;28;20136;-75